sensor_id;sensor_type;location;lat;lon;timestamp;temperature;humidity
25440;DHT22;13365;52.208;5.488;2023-07-31T00:00:39;19.70;99.90
25440;DHT22;13365;52.208;5.488;2023-07-31T00:03:04;19.70;99.90
25440;DHT22;13365;52.208;5.488;2023-07-31T00:05:30;19.80;99.90
25440;DHT22;13365;52.208;5.488;2023-07-31T00:07:55;19.90;99.90
25440;DHT22;13365;52.208;5.488;2023-07-31T00:10:21;20.10;99.90
25440;DHT22;13365;52.208;5.488;2023-07-31T00:12:47;20.10;99.90
25440;DHT22;13365;52.208;5.488;2023-07-31T00:15:13;20.30;99.90
25440;DHT22;13365;52.208;5.488;2023-07-31T00:17:40;20.20;99.90
25440;DHT22;13365;52.208;5.488;2023-07-31T00:20:06;20.40;99.90
25440;DHT22;13365;52.208;5.488;2023-07-31T00:22:32;20.40;99.90
25440;DHT22;13365;52.208;5.488;2023-07-31T00:24:57;20.30;99.90
25440;DHT22;13365;52.208;5.488;2023-07-31T00:27:23;20.50;99.90
25440;DHT22;13365;52.208;5.488;2023-07-31T00:29:49;20.60;99.90
25440;DHT22;13365;52.208;5.488;2023-07-31T00:32:14;20.50;99.90
25440;DHT22;13365;52.208;5.488;2023-07-31T00:34:40;20.50;99.90
25440;DHT22;13365;52.208;5.488;2023-07-31T00:37:06;20.70;99.90
25440;DHT22;13365;52.208;5.488;2023-07-31T00:39:34;20.70;99.90
25440;DHT22;13365;52.208;5.488;2023-07-31T00:41:59;20.80;99.90
25440;DHT22;13365;52.208;5.488;2023-07-31T00:44:25;20.90;99.90
25440;DHT22;13365;52.208;5.488;2023-07-31T00:46:51;21.00;99.90
25440;DHT22;13365;52.208;5.488;2023-07-31T00:49:16;21.10;99.90
25440;DHT22;13365;52.208;5.488;2023-07-31T00:51:42;21.10;99.90
25440;DHT22;13365;52.208;5.488;2023-07-31T00:54:07;21.10;99.90
25440;DHT22;13365;52.208;5.488;2023-07-31T00:56:33;21.40;99.90
25440;DHT22;13365;52.208;5.488;2023-07-31T00:58:59;21.40;99.90
25440;DHT22;13365;52.208;5.488;2023-07-31T01:01:24;21.20;99.90
25440;DHT22;13365;52.208;5.488;2023-07-31T01:03:51;21.20;99.90
25440;DHT22;13365;52.208;5.488;2023-07-31T01:09:04;21.10;99.90
25440;DHT22;13365;52.208;5.488;2023-07-31T01:11:35;20.80;99.90
25440;DHT22;13365;52.208;5.488;2023-07-31T01:14:03;20.60;99.90
25440;DHT22;13365;52.208;5.488;2023-07-31T01:16:29;20.70;99.90
25440;DHT22;13365;52.208;5.488;2023-07-31T01:18:54;20.30;99.90
25440;DHT22;13365;52.208;5.488;2023-07-31T01:24:30;19.80;99.90
25440;DHT22;13365;52.208;5.488;2023-07-31T01:27:04;19.50;99.90
25440;DHT22;13365;52.208;5.488;2023-07-31T01:30:08;19.60;99.90
25440;DHT22;13365;52.208;5.488;2023-07-31T01:32:43;19.50;99.90
25440;DHT22;13365;52.208;5.488;2023-07-31T01:35:10;19.60;99.90
25440;DHT22;13365;52.208;5.488;2023-07-31T01:37:38;19.60;99.90
25440;DHT22;13365;52.208;5.488;2023-07-31T01:40:18;19.50;99.90
25440;DHT22;13365;52.208;5.488;2023-07-31T01:42:44;19.40;99.90
25440;DHT22;13365;52.208;5.488;2023-07-31T01:45:12;19.30;99.90
25440;DHT22;13365;52.208;5.488;2023-07-31T01:47:38;19.50;99.90
25440;DHT22;13365;52.208;5.488;2023-07-31T01:50:07;19.40;99.90
25440;DHT22;13365;52.208;5.488;2023-07-31T01:52:32;19.40;99.90
25440;DHT22;13365;52.208;5.488;2023-07-31T01:54:58;19.70;99.90
25440;DHT22;13365;52.208;5.488;2023-07-31T01:57:32;19.50;99.90
25440;DHT22;13365;52.208;5.488;2023-07-31T01:59:59;19.60;99.90
25440;DHT22;13365;52.208;5.488;2023-07-31T02:02:24;19.80;99.90
25440;DHT22;13365;52.208;5.488;2023-07-31T02:04:50;19.70;99.90
25440;DHT22;13365;52.208;5.488;2023-07-31T02:07:15;19.90;99.90
25440;DHT22;13365;52.208;5.488;2023-07-31T02:09:41;20.00;99.90
25440;DHT22;13365;52.208;5.488;2023-07-31T02:12:07;20.40;99.90
25440;DHT22;13365;52.208;5.488;2023-07-31T02:14:34;20.40;99.90
25440;DHT22;13365;52.208;5.488;2023-07-31T02:17:00;20.50;99.90
25440;DHT22;13365;52.208;5.488;2023-07-31T02:19:25;20.50;99.90
25440;DHT22;13365;52.208;5.488;2023-07-31T02:21:51;20.50;99.90
25440;DHT22;13365;52.208;5.488;2023-07-31T02:24:16;20.40;99.90
25440;DHT22;13365;52.208;5.488;2023-07-31T02:26:42;20.60;99.90
25440;DHT22;13365;52.208;5.488;2023-07-31T02:29:08;20.60;99.90
25440;DHT22;13365;52.208;5.488;2023-07-31T02:31:33;20.50;99.90
25440;DHT22;13365;52.208;5.488;2023-07-31T02:33:59;20.40;99.90
25440;DHT22;13365;52.208;5.488;2023-07-31T02:36:24;20.40;99.90
25440;DHT22;13365;52.208;5.488;2023-07-31T02:38:50;20.30;99.90
25440;DHT22;13365;52.208;5.488;2023-07-31T02:41:15;20.40;99.90
25440;DHT22;13365;52.208;5.488;2023-07-31T02:43:41;20.40;99.90
25440;DHT22;13365;52.208;5.488;2023-07-31T02:46:06;20.30;99.90
25440;DHT22;13365;52.208;5.488;2023-07-31T02:48:32;20.40;99.90
25440;DHT22;13365;52.208;5.488;2023-07-31T02:50:57;20.40;99.90
25440;DHT22;13365;52.208;5.488;2023-07-31T02:53:23;20.30;99.90
25440;DHT22;13365;52.208;5.488;2023-07-31T02:55:48;20.60;99.90
25440;DHT22;13365;52.208;5.488;2023-07-31T02:58:14;20.70;99.90
25440;DHT22;13365;52.208;5.488;2023-07-31T03:00:45;20.90;99.90
25440;DHT22;13365;52.208;5.488;2023-07-31T03:03:11;20.80;99.90
25440;DHT22;13365;52.208;5.488;2023-07-31T03:05:37;20.80;99.90
25440;DHT22;13365;52.208;5.488;2023-07-31T03:08:03;21.10;99.90
25440;DHT22;13365;52.208;5.488;2023-07-31T03:10:29;21.10;99.90
25440;DHT22;13365;52.208;5.488;2023-07-31T03:12:54;21.30;99.90
25440;DHT22;13365;52.208;5.488;2023-07-31T03:15:20;21.40;99.90
25440;DHT22;13365;52.208;5.488;2023-07-31T03:17:45;21.30;99.90
25440;DHT22;13365;52.208;5.488;2023-07-31T03:20:11;21.20;99.90
25440;DHT22;13365;52.208;5.488;2023-07-31T03:22:37;21.30;99.90
25440;DHT22;13365;52.208;5.488;2023-07-31T03:25:03;21.30;99.90
25440;DHT22;13365;52.208;5.488;2023-07-31T03:27:29;21.30;99.90
25440;DHT22;13365;52.208;5.488;2023-07-31T03:29:54;21.10;99.90
25440;DHT22;13365;52.208;5.488;2023-07-31T03:32:20;21.10;99.90
25440;DHT22;13365;52.208;5.488;2023-07-31T03:34:45;21.10;99.90
25440;DHT22;13365;52.208;5.488;2023-07-31T03:37:11;21.10;99.90
25440;DHT22;13365;52.208;5.488;2023-07-31T03:39:37;21.30;99.90
25440;DHT22;13365;52.208;5.488;2023-07-31T03:42:02;21.30;99.90
25440;DHT22;13365;52.208;5.488;2023-07-31T03:44:28;21.20;99.90
25440;DHT22;13365;52.208;5.488;2023-07-31T03:46:53;21.30;99.90
25440;DHT22;13365;52.208;5.488;2023-07-31T03:49:19;21.20;99.90
25440;DHT22;13365;52.208;5.488;2023-07-31T03:51:44;21.20;99.90
25440;DHT22;13365;52.208;5.488;2023-07-31T03:54:10;21.20;99.90
25440;DHT22;13365;52.208;5.488;2023-07-31T03:56:35;21.20;99.90
25440;DHT22;13365;52.208;5.488;2023-07-31T03:59:03;21.30;99.90
25440;DHT22;13365;52.208;5.488;2023-07-31T04:01:28;21.30;99.90
25440;DHT22;13365;52.208;5.488;2023-07-31T04:03:54;21.30;99.90
25440;DHT22;13365;52.208;5.488;2023-07-31T04:06:19;21.20;99.90
25440;DHT22;13365;52.208;5.488;2023-07-31T04:08:45;21.10;99.90
25440;DHT22;13365;52.208;5.488;2023-07-31T04:11:11;21.30;99.90
25440;DHT22;13365;52.208;5.488;2023-07-31T04:13:37;21.20;99.90
25440;DHT22;13365;52.208;5.488;2023-07-31T04:16:03;21.20;99.90
25440;DHT22;13365;52.208;5.488;2023-07-31T04:18:29;21.20;99.90
25440;DHT22;13365;52.208;5.488;2023-07-31T04:20:56;21.40;99.90
25440;DHT22;13365;52.208;5.488;2023-07-31T04:23:24;21.30;99.90
25440;DHT22;13365;52.208;5.488;2023-07-31T04:25:49;21.40;99.90
25440;DHT22;13365;52.208;5.488;2023-07-31T04:28:15;21.40;99.90
25440;DHT22;13365;52.208;5.488;2023-07-31T04:30:40;21.20;99.90
25440;DHT22;13365;52.208;5.488;2023-07-31T04:33:06;21.10;99.90
25440;DHT22;13365;52.208;5.488;2023-07-31T04:35:31;21.10;99.90
25440;DHT22;13365;52.208;5.488;2023-07-31T04:37:57;21.10;99.90
25440;DHT22;13365;52.208;5.488;2023-07-31T04:40:23;21.10;99.90
25440;DHT22;13365;52.208;5.488;2023-07-31T04:42:48;20.90;99.90
25440;DHT22;13365;52.208;5.488;2023-07-31T04:45:14;20.90;99.90
25440;DHT22;13365;52.208;5.488;2023-07-31T04:47:40;20.90;99.90
25440;DHT22;13365;52.208;5.488;2023-07-31T04:50:06;21.00;99.90
25440;DHT22;13365;52.208;5.488;2023-07-31T04:52:31;20.90;99.90
25440;DHT22;13365;52.208;5.488;2023-07-31T04:54:57;20.90;99.90
25440;DHT22;13365;52.208;5.488;2023-07-31T04:57:22;20.90;99.90
25440;DHT22;13365;52.208;5.488;2023-07-31T04:59:48;20.80;99.90
25440;DHT22;13365;52.208;5.488;2023-07-31T05:02:13;20.70;99.90
25440;DHT22;13365;52.208;5.488;2023-07-31T05:04:39;20.80;99.90
25440;DHT22;13365;52.208;5.488;2023-07-31T05:07:04;20.80;99.90
25440;DHT22;13365;52.208;5.488;2023-07-31T05:09:30;20.80;99.90
25440;DHT22;13365;52.208;5.488;2023-07-31T05:11:56;20.70;99.90
25440;DHT22;13365;52.208;5.488;2023-07-31T05:14:21;20.70;99.90
25440;DHT22;13365;52.208;5.488;2023-07-31T05:16:47;20.70;99.90
25440;DHT22;13365;52.208;5.488;2023-07-31T05:19:12;20.80;99.90
25440;DHT22;13365;52.208;5.488;2023-07-31T05:21:38;20.60;99.90
25440;DHT22;13365;52.208;5.488;2023-07-31T05:24:04;20.50;99.90
25440;DHT22;13365;52.208;5.488;2023-07-31T05:26:30;20.50;99.90
25440;DHT22;13365;52.208;5.488;2023-07-31T05:28:56;20.70;99.90
25440;DHT22;13365;52.208;5.488;2023-07-31T05:31:21;20.50;99.90
25440;DHT22;13365;52.208;5.488;2023-07-31T05:33:48;20.40;99.90
25440;DHT22;13365;52.208;5.488;2023-07-31T05:36:15;20.40;99.90
25440;DHT22;13365;52.208;5.488;2023-07-31T05:38:41;20.50;99.90
25440;DHT22;13365;52.208;5.488;2023-07-31T05:41:09;20.60;99.90
25440;DHT22;13365;52.208;5.488;2023-07-31T05:43:34;20.60;99.90
25440;DHT22;13365;52.208;5.488;2023-07-31T05:46:00;20.40;99.90
25440;DHT22;13365;52.208;5.488;2023-07-31T05:48:26;20.30;99.90
25440;DHT22;13365;52.208;5.488;2023-07-31T05:50:52;20.30;99.90
25440;DHT22;13365;52.208;5.488;2023-07-31T05:53:17;20.30;99.90
25440;DHT22;13365;52.208;5.488;2023-07-31T05:55:46;20.40;99.90
25440;DHT22;13365;52.208;5.488;2023-07-31T05:58:12;20.30;99.90
25440;DHT22;13365;52.208;5.488;2023-07-31T06:00:37;20.30;99.90
25440;DHT22;13365;52.208;5.488;2023-07-31T06:03:03;20.30;99.90
25440;DHT22;13365;52.208;5.488;2023-07-31T06:05:32;20.20;99.90
25440;DHT22;13365;52.208;5.488;2023-07-31T06:07:58;20.10;99.90
25440;DHT22;13365;52.208;5.488;2023-07-31T06:10:23;20.10;99.90
25440;DHT22;13365;52.208;5.488;2023-07-31T06:12:49;20.20;99.90
25440;DHT22;13365;52.208;5.488;2023-07-31T06:15:14;20.20;99.90
25440;DHT22;13365;52.208;5.488;2023-07-31T06:17:40;20.00;99.90
25440;DHT22;13365;52.208;5.488;2023-07-31T06:20:06;20.10;99.90
25440;DHT22;13365;52.208;5.488;2023-07-31T06:22:32;20.20;99.90
25440;DHT22;13365;52.208;5.488;2023-07-31T06:24:58;20.20;99.90
25440;DHT22;13365;52.208;5.488;2023-07-31T06:27:24;20.30;99.90
25440;DHT22;13365;52.208;5.488;2023-07-31T06:29:49;20.30;99.90
25440;DHT22;13365;52.208;5.488;2023-07-31T06:32:15;20.30;99.90
25440;DHT22;13365;52.208;5.488;2023-07-31T06:34:40;20.10;99.90
25440;DHT22;13365;52.208;5.488;2023-07-31T06:37:06;20.00;99.90
25440;DHT22;13365;52.208;5.488;2023-07-31T06:39:31;20.10;99.90
25440;DHT22;13365;52.208;5.488;2023-07-31T06:41:57;20.10;99.90
25440;DHT22;13365;52.208;5.488;2023-07-31T06:44:22;20.20;99.90
25440;DHT22;13365;52.208;5.488;2023-07-31T06:46:48;20.20;99.90
25440;DHT22;13365;52.208;5.488;2023-07-31T06:49:13;20.30;99.90
25440;DHT22;13365;52.208;5.488;2023-07-31T06:51:40;20.40;99.90
25440;DHT22;13365;52.208;5.488;2023-07-31T06:54:07;20.30;99.90
25440;DHT22;13365;52.208;5.488;2023-07-31T06:56:33;20.40;99.90
25440;DHT22;13365;52.208;5.488;2023-07-31T06:58:58;20.60;99.90
25440;DHT22;13365;52.208;5.488;2023-07-31T07:01:24;20.60;99.90
25440;DHT22;13365;52.208;5.488;2023-07-31T07:03:49;20.60;99.90
25440;DHT22;13365;52.208;5.488;2023-07-31T07:06:16;20.70;99.90
25440;DHT22;13365;52.208;5.488;2023-07-31T07:08:42;20.70;99.90
25440;DHT22;13365;52.208;5.488;2023-07-31T07:11:07;20.70;99.90
25440;DHT22;13365;52.208;5.488;2023-07-31T07:13:33;20.70;99.90
25440;DHT22;13365;52.208;5.488;2023-07-31T07:15:59;20.80;99.90
25440;DHT22;13365;52.208;5.488;2023-07-31T07:18:24;20.80;99.90
25440;DHT22;13365;52.208;5.488;2023-07-31T07:20:51;20.80;99.90
25440;DHT22;13365;52.208;5.488;2023-07-31T07:23:17;20.70;99.90
25440;DHT22;13365;52.208;5.488;2023-07-31T07:25:43;20.60;99.90
25440;DHT22;13365;52.208;5.488;2023-07-31T07:28:09;20.80;99.90
25440;DHT22;13365;52.208;5.488;2023-07-31T07:30:35;21.00;99.90
25440;DHT22;13365;52.208;5.488;2023-07-31T07:33:00;21.00;99.90
25440;DHT22;13365;52.208;5.488;2023-07-31T07:35:26;21.00;99.90
25440;DHT22;13365;52.208;5.488;2023-07-31T07:37:51;20.90;99.90
25440;DHT22;13365;52.208;5.488;2023-07-31T07:40:17;20.80;99.90
25440;DHT22;13365;52.208;5.488;2023-07-31T07:42:42;20.90;99.90
25440;DHT22;13365;52.208;5.488;2023-07-31T07:45:08;21.00;99.90
25440;DHT22;13365;52.208;5.488;2023-07-31T07:47:34;21.10;99.90
25440;DHT22;13365;52.208;5.488;2023-07-31T07:50:00;21.30;99.90
25440;DHT22;13365;52.208;5.488;2023-07-31T07:52:25;21.50;99.90
25440;DHT22;13365;52.208;5.488;2023-07-31T07:54:51;21.60;99.90
25440;DHT22;13365;52.208;5.488;2023-07-31T07:57:16;21.70;99.90
25440;DHT22;13365;52.208;5.488;2023-07-31T07:59:42;21.70;99.90
25440;DHT22;13365;52.208;5.488;2023-07-31T08:02:07;21.70;99.90
25440;DHT22;13365;52.208;5.488;2023-07-31T08:04:33;21.60;99.90
25440;DHT22;13365;52.208;5.488;2023-07-31T08:06:59;21.60;99.90
25440;DHT22;13365;52.208;5.488;2023-07-31T08:09:24;21.70;99.90
25440;DHT22;13365;52.208;5.488;2023-07-31T08:11:50;21.60;99.90
25440;DHT22;13365;52.208;5.488;2023-07-31T08:14:15;21.50;99.90
25440;DHT22;13365;52.208;5.488;2023-07-31T08:16:41;21.50;99.90
25440;DHT22;13365;52.208;5.488;2023-07-31T08:19:06;21.60;99.90
25440;DHT22;13365;52.208;5.488;2023-07-31T08:21:32;21.70;99.90
25440;DHT22;13365;52.208;5.488;2023-07-31T08:23:57;21.80;99.90
25440;DHT22;13365;52.208;5.488;2023-07-31T08:26:23;21.80;99.90
25440;DHT22;13365;52.208;5.488;2023-07-31T08:28:48;21.80;99.90
25440;DHT22;13365;52.208;5.488;2023-07-31T08:31:14;21.90;99.90
25440;DHT22;13365;52.208;5.488;2023-07-31T08:33:39;21.80;99.90
25440;DHT22;13365;52.208;5.488;2023-07-31T08:36:06;22.10;99.90
25440;DHT22;13365;52.208;5.488;2023-07-31T08:38:31;22.10;99.90
25440;DHT22;13365;52.208;5.488;2023-07-31T08:40:57;22.10;99.90
25440;DHT22;13365;52.208;5.488;2023-07-31T08:43:26;22.00;99.90
25440;DHT22;13365;52.208;5.488;2023-07-31T08:45:52;22.10;99.90
25440;DHT22;13365;52.208;5.488;2023-07-31T08:48:21;22.00;99.90
25440;DHT22;13365;52.208;5.488;2023-07-31T08:50:47;22.00;99.90
25440;DHT22;13365;52.208;5.488;2023-07-31T08:53:13;21.90;99.90
25440;DHT22;13365;52.208;5.488;2023-07-31T08:55:38;21.90;99.90
25440;DHT22;13365;52.208;5.488;2023-07-31T08:58:05;21.90;99.90
25440;DHT22;13365;52.208;5.488;2023-07-31T09:00:32;22.00;99.90
25440;DHT22;13365;52.208;5.488;2023-07-31T09:03:03;22.10;99.90
25440;DHT22;13365;52.208;5.488;2023-07-31T09:05:33;22.10;99.90
25440;DHT22;13365;52.208;5.488;2023-07-31T09:07:59;22.10;99.90
25440;DHT22;13365;52.208;5.488;2023-07-31T09:10:25;22.40;99.90
25440;DHT22;13365;52.208;5.488;2023-07-31T09:12:51;22.40;99.90
25440;DHT22;13365;52.208;5.488;2023-07-31T09:15:17;22.50;99.90
25440;DHT22;13365;52.208;5.488;2023-07-31T09:17:42;22.40;99.90
25440;DHT22;13365;52.208;5.488;2023-07-31T09:20:24;22.40;99.90
25440;DHT22;13365;52.208;5.488;2023-07-31T09:22:50;22.50;99.90
25440;DHT22;13365;52.208;5.488;2023-07-31T09:25:20;22.40;99.90
25440;DHT22;13365;52.208;5.488;2023-07-31T09:27:51;22.40;99.90
25440;DHT22;13365;52.208;5.488;2023-07-31T09:30:18;22.60;99.90
25440;DHT22;13365;52.208;5.488;2023-07-31T09:32:45;22.60;99.90
25440;DHT22;13365;52.208;5.488;2023-07-31T09:35:21;22.60;99.90
25440;DHT22;13365;52.208;5.488;2023-07-31T09:37:52;22.40;99.90
25440;DHT22;13365;52.208;5.488;2023-07-31T09:40:27;22.40;99.90
25440;DHT22;13365;52.208;5.488;2023-07-31T09:42:56;22.50;99.90
25440;DHT22;13365;52.208;5.488;2023-07-31T09:45:23;22.50;99.90
25440;DHT22;13365;52.208;5.488;2023-07-31T09:47:48;22.50;99.90
25440;DHT22;13365;52.208;5.488;2023-07-31T09:50:14;22.80;99.90
25440;DHT22;13365;52.208;5.488;2023-07-31T09:52:41;22.80;99.90
25440;DHT22;13365;52.208;5.488;2023-07-31T09:55:08;23.10;99.90
25440;DHT22;13365;52.208;5.488;2023-07-31T09:57:34;23.00;99.90
25440;DHT22;13365;52.208;5.488;2023-07-31T10:00:00;23.10;99.90
25440;DHT22;13365;52.208;5.488;2023-07-31T10:02:27;23.10;99.90
25440;DHT22;13365;52.208;5.488;2023-07-31T10:04:57;23.10;99.90
25440;DHT22;13365;52.208;5.488;2023-07-31T10:07:25;23.20;99.90
25440;DHT22;13365;52.208;5.488;2023-07-31T10:09:53;23.30;99.90
25440;DHT22;13365;52.208;5.488;2023-07-31T10:12:22;23.10;99.90
25440;DHT22;13365;52.208;5.488;2023-07-31T10:14:49;22.90;99.90
25440;DHT22;13365;52.208;5.488;2023-07-31T10:17:16;22.90;99.90
25440;DHT22;13365;52.208;5.488;2023-07-31T10:19:42;23.00;99.90
25440;DHT22;13365;52.208;5.488;2023-07-31T10:22:08;23.10;99.90
25440;DHT22;13365;52.208;5.488;2023-07-31T10:24:34;23.30;99.90
25440;DHT22;13365;52.208;5.488;2023-07-31T10:27:02;23.40;99.90
25440;DHT22;13365;52.208;5.488;2023-07-31T10:29:29;23.40;99.90
25440;DHT22;13365;52.208;5.488;2023-07-31T10:31:57;23.30;99.90
25440;DHT22;13365;52.208;5.488;2023-07-31T10:34:23;23.40;99.90
25440;DHT22;13365;52.208;5.488;2023-07-31T10:36:49;23.50;99.90
25440;DHT22;13365;52.208;5.488;2023-07-31T10:39:34;23.50;99.90
25440;DHT22;13365;52.208;5.488;2023-07-31T10:42:10;23.40;99.90
25440;DHT22;13365;52.208;5.488;2023-07-31T10:44:35;23.30;99.90
25440;DHT22;13365;52.208;5.488;2023-07-31T10:47:01;23.40;99.90
25440;DHT22;13365;52.208;5.488;2023-07-31T10:49:29;23.40;99.90
25440;DHT22;13365;52.208;5.488;2023-07-31T10:51:57;23.20;99.90
25440;DHT22;13365;52.208;5.488;2023-07-31T10:54:22;23.40;99.90
25440;DHT22;13365;52.208;5.488;2023-07-31T10:56:50;23.40;99.90
25440;DHT22;13365;52.208;5.488;2023-07-31T10:59:16;23.40;99.90
25440;DHT22;13365;52.208;5.488;2023-07-31T11:01:53;23.50;99.90
25440;DHT22;13365;52.208;5.488;2023-07-31T11:04:23;23.40;99.90
25440;DHT22;13365;52.208;5.488;2023-07-31T11:07:01;23.40;99.90
25440;DHT22;13365;52.208;5.488;2023-07-31T11:09:29;23.30;99.90
25440;DHT22;13365;52.208;5.488;2023-07-31T11:11:56;23.30;99.90
25440;DHT22;13365;52.208;5.488;2023-07-31T11:14:22;23.30;99.90
25440;DHT22;13365;52.208;5.488;2023-07-31T11:16:50;23.10;99.90
25440;DHT22;13365;52.208;5.488;2023-07-31T11:19:22;23.10;99.90
25440;DHT22;13365;52.208;5.488;2023-07-31T11:21:48;23.20;99.90
25440;DHT22;13365;52.208;5.488;2023-07-31T11:24:14;23.20;99.90
25440;DHT22;13365;52.208;5.488;2023-07-31T11:26:51;23.20;99.90
25440;DHT22;13365;52.208;5.488;2023-07-31T11:29:17;23.20;99.90
25440;DHT22;13365;52.208;5.488;2023-07-31T11:31:44;23.10;99.90
25440;DHT22;13365;52.208;5.488;2023-07-31T11:34:10;23.20;99.90
25440;DHT22;13365;52.208;5.488;2023-07-31T11:36:36;23.00;99.90
25440;DHT22;13365;52.208;5.488;2023-07-31T11:39:05;23.10;99.90
25440;DHT22;13365;52.208;5.488;2023-07-31T11:41:31;23.20;99.90
25440;DHT22;13365;52.208;5.488;2023-07-31T11:44:00;23.20;99.90
25440;DHT22;13365;52.208;5.488;2023-07-31T11:46:26;23.50;99.90
25440;DHT22;13365;52.208;5.488;2023-07-31T11:48:51;23.30;99.90
25440;DHT22;13365;52.208;5.488;2023-07-31T11:51:20;23.20;99.90
25440;DHT22;13365;52.208;5.488;2023-07-31T11:53:51;23.10;99.90
25440;DHT22;13365;52.208;5.488;2023-07-31T11:56:19;23.20;99.90
25440;DHT22;13365;52.208;5.488;2023-07-31T11:58:47;23.10;99.90
25440;DHT22;13365;52.208;5.488;2023-07-31T12:01:15;22.90;99.90
25440;DHT22;13365;52.208;5.488;2023-07-31T12:03:41;22.90;99.90
25440;DHT22;13365;52.208;5.488;2023-07-31T12:06:08;22.80;99.90
25440;DHT22;13365;52.208;5.488;2023-07-31T12:08:33;23.10;99.90
25440;DHT22;13365;52.208;5.488;2023-07-31T12:11:04;23.20;99.90
25440;DHT22;13365;52.208;5.488;2023-07-31T12:13:31;23.40;99.90
25440;DHT22;13365;52.208;5.488;2023-07-31T12:15:58;23.20;99.90
25440;DHT22;13365;52.208;5.488;2023-07-31T12:18:26;23.20;99.90
25440;DHT22;13365;52.208;5.488;2023-07-31T12:20:57;23.10;99.90
25440;DHT22;13365;52.208;5.488;2023-07-31T12:23:25;23.30;99.90
25440;DHT22;13365;52.208;5.488;2023-07-31T12:26:04;23.20;99.90
25440;DHT22;13365;52.208;5.488;2023-07-31T12:28:30;23.20;99.90
25440;DHT22;13365;52.208;5.488;2023-07-31T12:31:00;23.10;99.90
25440;DHT22;13365;52.208;5.488;2023-07-31T12:33:31;23.20;99.90
25440;DHT22;13365;52.208;5.488;2023-07-31T12:35:58;23.20;99.90
25440;DHT22;13365;52.208;5.488;2023-07-31T12:38:23;23.10;99.90
25440;DHT22;13365;52.208;5.488;2023-07-31T12:40:49;23.10;99.90
25440;DHT22;13365;52.208;5.488;2023-07-31T12:43:15;23.20;99.90
25440;DHT22;13365;52.208;5.488;2023-07-31T12:45:40;23.20;99.90
25440;DHT22;13365;52.208;5.488;2023-07-31T12:48:06;23.10;99.90
25440;DHT22;13365;52.208;5.488;2023-07-31T12:50:31;23.10;99.90
25440;DHT22;13365;52.208;5.488;2023-07-31T12:52:57;23.20;99.90
25440;DHT22;13365;52.208;5.488;2023-07-31T12:55:23;23.20;99.90
25440;DHT22;13365;52.208;5.488;2023-07-31T12:57:49;23.20;99.90
25440;DHT22;13365;52.208;5.488;2023-07-31T13:00:15;23.00;99.90
25440;DHT22;13365;52.208;5.488;2023-07-31T13:02:41;23.00;99.90
25440;DHT22;13365;52.208;5.488;2023-07-31T13:05:07;23.00;99.90
25440;DHT22;13365;52.208;5.488;2023-07-31T13:07:32;23.10;99.90
25440;DHT22;13365;52.208;5.488;2023-07-31T13:09:58;23.20;99.90
25440;DHT22;13365;52.208;5.488;2023-07-31T13:12:23;23.30;99.90
25440;DHT22;13365;52.208;5.488;2023-07-31T13:14:49;23.50;99.90
25440;DHT22;13365;52.208;5.488;2023-07-31T13:17:15;23.50;99.90
25440;DHT22;13365;52.208;5.488;2023-07-31T13:19:42;23.60;99.90
25440;DHT22;13365;52.208;5.488;2023-07-31T13:22:07;23.60;99.90
25440;DHT22;13365;52.208;5.488;2023-07-31T13:24:33;23.60;99.90
25440;DHT22;13365;52.208;5.488;2023-07-31T13:26:59;23.50;99.90
25440;DHT22;13365;52.208;5.488;2023-07-31T13:29:24;23.70;99.90
25440;DHT22;13365;52.208;5.488;2023-07-31T13:31:51;24.10;99.90
25440;DHT22;13365;52.208;5.488;2023-07-31T13:34:17;24.00;99.90
25440;DHT22;13365;52.208;5.488;2023-07-31T13:36:42;24.00;99.90
25440;DHT22;13365;52.208;5.488;2023-07-31T13:39:08;24.10;99.90
25440;DHT22;13365;52.208;5.488;2023-07-31T13:41:34;24.20;99.90
25440;DHT22;13365;52.208;5.488;2023-07-31T13:43:59;24.20;99.90
25440;DHT22;13365;52.208;5.488;2023-07-31T13:46:25;24.40;99.90
25440;DHT22;13365;52.208;5.488;2023-07-31T13:48:51;24.60;99.90
25440;DHT22;13365;52.208;5.488;2023-07-31T13:51:20;24.80;99.90
25440;DHT22;13365;52.208;5.488;2023-07-31T13:53:45;24.70;99.90
25440;DHT22;13365;52.208;5.488;2023-07-31T13:56:10;24.80;99.90
25440;DHT22;13365;52.208;5.488;2023-07-31T13:58:36;24.40;99.90
25440;DHT22;13365;52.208;5.488;2023-07-31T14:01:01;24.40;99.90
25440;DHT22;13365;52.208;5.488;2023-07-31T14:03:28;24.30;99.90
25440;DHT22;13365;52.208;5.488;2023-07-31T14:05:54;24.20;99.90
25440;DHT22;13365;52.208;5.488;2023-07-31T14:08:21;24.20;99.90
25440;DHT22;13365;52.208;5.488;2023-07-31T14:10:46;23.90;99.90
25440;DHT22;13365;52.208;5.488;2023-07-31T14:13:12;24.00;99.90
25440;DHT22;13365;52.208;5.488;2023-07-31T14:15:37;24.00;99.90
25440;DHT22;13365;52.208;5.488;2023-07-31T14:18:03;24.00;99.90
25440;DHT22;13365;52.208;5.488;2023-07-31T14:20:29;24.00;99.90
25440;DHT22;13365;52.208;5.488;2023-07-31T14:22:55;24.00;99.90
25440;DHT22;13365;52.208;5.488;2023-07-31T14:25:21;23.70;99.90
25440;DHT22;13365;52.208;5.488;2023-07-31T14:27:46;23.70;99.90
25440;DHT22;13365;52.208;5.488;2023-07-31T14:30:12;23.70;99.90
25440;DHT22;13365;52.208;5.488;2023-07-31T14:32:37;23.60;99.90
25440;DHT22;13365;52.208;5.488;2023-07-31T14:35:04;23.40;99.90
25440;DHT22;13365;52.208;5.488;2023-07-31T14:37:40;23.30;99.90
25440;DHT22;13365;52.208;5.488;2023-07-31T14:40:07;23.10;99.90
25440;DHT22;13365;52.208;5.488;2023-07-31T14:42:34;23.20;99.90
25440;DHT22;13365;52.208;5.488;2023-07-31T14:45:00;23.50;99.90
25440;DHT22;13365;52.208;5.488;2023-07-31T14:47:25;23.50;99.90
25440;DHT22;13365;52.208;5.488;2023-07-31T14:49:52;23.50;99.90
25440;DHT22;13365;52.208;5.488;2023-07-31T14:52:20;23.50;99.90
25440;DHT22;13365;52.208;5.488;2023-07-31T14:55:07;23.50;99.90
25440;DHT22;13365;52.208;5.488;2023-07-31T14:57:34;23.50;99.90
25440;DHT22;13365;52.208;5.488;2023-07-31T15:00:00;23.50;99.90
25440;DHT22;13365;52.208;5.488;2023-07-31T15:02:44;23.30;99.90
25440;DHT22;13365;52.208;5.488;2023-07-31T15:05:10;23.40;99.90
25440;DHT22;13365;52.208;5.488;2023-07-31T15:07:35;23.40;99.90
25440;DHT22;13365;52.208;5.488;2023-07-31T15:10:09;23.50;99.90
25440;DHT22;13365;52.208;5.488;2023-07-31T15:15:10;23.20;99.90
25440;DHT22;13365;52.208;5.488;2023-07-31T15:17:39;23.50;99.90
25440;DHT22;13365;52.208;5.488;2023-07-31T15:20:06;23.40;99.90
25440;DHT22;13365;52.208;5.488;2023-07-31T15:22:52;23.40;99.90
25440;DHT22;13365;52.208;5.488;2023-07-31T15:25:28;23.40;99.90
25440;DHT22;13365;52.208;5.488;2023-07-31T15:27:58;23.40;99.90
25440;DHT22;13365;52.208;5.488;2023-07-31T15:30:44;23.30;99.90
25440;DHT22;13365;52.208;5.488;2023-07-31T15:33:12;23.20;99.90
25440;DHT22;13365;52.208;5.488;2023-07-31T15:35:38;23.10;99.90